sensor_id;sensor_type;location;lat;lon;timestamp;P1;durP1;ratioP1;P2;durP2;ratioP2
52412;SDS011;38339;53.234;6.578;2022-10-31T00:00:23;34.60;;;17.67;;
52412;SDS011;38339;53.234;6.578;2022-10-31T00:02:49;31.35;;;16.92;;
52412;SDS011;38339;53.234;6.578;2022-10-31T00:05:14;29.95;;;17.92;;
52412;SDS011;38339;53.234;6.578;2022-10-31T00:07:40;33.65;;;18.00;;
52412;SDS011;38339;53.234;6.578;2022-10-31T00:10:06;30.92;;;18.23;;
52412;SDS011;38339;53.234;6.578;2022-10-31T00:12:32;30.58;;;17.98;;
52412;SDS011;38339;53.234;6.578;2022-10-31T00:14:58;33.72;;;18.83;;
52412;SDS011;38339;53.234;6.578;2022-10-31T00:17:23;37.95;;;18.80;;
52412;SDS011;38339;53.234;6.578;2022-10-31T00:19:49;31.85;;;18.10;;
52412;SDS011;38339;53.234;6.578;2022-10-31T00:22:15;33.63;;;19.00;;
52412;SDS011;38339;53.234;6.578;2022-10-31T00:24:40;34.50;;;19.45;;
52412;SDS011;38339;53.234;6.578;2022-10-31T00:27:06;33.53;;;18.85;;
52412;SDS011;38339;53.234;6.578;2022-10-31T00:29:32;35.58;;;19.08;;
52412;SDS011;38339;53.234;6.578;2022-10-31T00:31:57;34.60;;;18.63;;
52412;SDS011;38339;53.234;6.578;2022-10-31T00:34:23;28.40;;;18.55;;
52412;SDS011;38339;53.234;6.578;2022-10-31T00:36:49;32.30;;;19.00;;
52412;SDS011;38339;53.234;6.578;2022-10-31T00:39:14;33.25;;;19.10;;
52412;SDS011;38339;53.234;6.578;2022-10-31T00:41:40;34.80;;;20.67;;
52412;SDS011;38339;53.234;6.578;2022-10-31T00:44:06;34.25;;;20.85;;
52412;SDS011;38339;53.234;6.578;2022-10-31T00:46:32;33.08;;;21.35;;
52412;SDS011;38339;53.234;6.578;2022-10-31T00:48:58;31.65;;;20.25;;
52412;SDS011;38339;53.234;6.578;2022-10-31T00:51:23;33.17;;;20.95;;
52412;SDS011;38339;53.234;6.578;2022-10-31T00:53:49;33.58;;;20.65;;
52412;SDS011;38339;53.234;6.578;2022-10-31T00:56:15;31.70;;;20.92;;
52412;SDS011;38339;53.234;6.578;2022-10-31T00:58:40;31.65;;;20.05;;
52412;SDS011;38339;53.234;6.578;2022-10-31T01:01:06;34.45;;;21.65;;
52412;SDS011;38339;53.234;6.578;2022-10-31T01:03:32;33.70;;;21.80;;
52412;SDS011;38339;53.234;6.578;2022-10-31T01:06:03;36.05;;;21.88;;
52412;SDS011;38339;53.234;6.578;2022-10-31T01:08:31;36.90;;;20.85;;
52412;SDS011;38339;53.234;6.578;2022-10-31T01:13:45;33.63;;;22.30;;
52412;SDS011;38339;53.234;6.578;2022-10-31T01:16:16;32.50;;;20.95;;
52412;SDS011;38339;53.234;6.578;2022-10-31T01:18:44;34.42;;;21.05;;
52412;SDS011;38339;53.234;6.578;2022-10-31T01:21:11;34.20;;;21.92;;
52412;SDS011;38339;53.234;6.578;2022-10-31T01:23:41;33.25;;;20.42;;
52412;SDS011;38339;53.234;6.578;2022-10-31T01:26:09;32.78;;;20.33;;
52412;SDS011;38339;53.234;6.578;2022-10-31T01:28:48;31.70;;;20.70;;
52412;SDS011;38339;53.234;6.578;2022-10-31T01:31:16;33.88;;;19.58;;
52412;SDS011;38339;53.234;6.578;2022-10-31T01:33:42;31.23;;;19.33;;
52412;SDS011;38339;53.234;6.578;2022-10-31T01:38:44;34.63;;;19.15;;
52412;SDS011;38339;53.234;6.578;2022-10-31T01:41:12;28.98;;;19.95;;
52412;SDS011;38339;53.234;6.578;2022-10-31T01:46:09;34.35;;;19.80;;
52412;SDS011;38339;53.234;6.578;2022-10-31T01:48:35;30.13;;;18.08;;
52412;SDS011;38339;53.234;6.578;2022-10-31T01:51:01;30.38;;;18.80;;
52412;SDS011;38339;53.234;6.578;2022-10-31T01:53:30;31.30;;;18.17;;
52412;SDS011;38339;53.234;6.578;2022-10-31T01:55:56;30.60;;;18.50;;
52412;SDS011;38339;53.234;6.578;2022-10-31T01:58:24;35.22;;;19.67;;
52412;SDS011;38339;53.234;6.578;2022-10-31T02:00:54;32.88;;;18.60;;
52412;SDS011;38339;53.234;6.578;2022-10-31T02:03:23;33.30;;;18.55;;
52412;SDS011;38339;53.234;6.578;2022-10-31T02:05:50;30.70;;;18.65;;
52412;SDS011;38339;53.234;6.578;2022-10-31T02:08:32;33.25;;;18.73;;
52412;SDS011;38339;53.234;6.578;2022-10-31T02:11:00;30.17;;;17.80;;
52412;SDS011;38339;53.234;6.578;2022-10-31T02:13:27;30.58;;;18.65;;
52412;SDS011;38339;53.234;6.578;2022-10-31T02:15:55;28.90;;;18.25;;
52412;SDS011;38339;53.234;6.578;2022-10-31T02:18:23;34.72;;;19.60;;
52412;SDS011;38339;53.234;6.578;2022-10-31T02:26:40;30.65;;;18.45;;
52412;SDS011;38339;53.234;6.578;2022-10-31T02:29:17;29.20;;;17.00;;
52412;SDS011;38339;53.234;6.578;2022-10-31T02:37:37;33.35;;;19.20;;
52412;SDS011;38339;53.234;6.578;2022-10-31T02:40:17;28.88;;;18.25;;
52412;SDS011;38339;53.234;6.578;2022-10-31T02:48:18;28.60;;;18.00;;
52412;SDS011;38339;53.234;6.578;2022-10-31T02:50:48;26.83;;;18.92;;
52412;SDS011;38339;53.234;6.578;2022-10-31T02:53:17;34.15;;;18.90;;
52412;SDS011;38339;53.234;6.578;2022-10-31T02:56:43;27.02;;;18.17;;
52412;SDS011;38339;53.234;6.578;2022-10-31T03:01:11;31.08;;;19.70;;
52412;SDS011;38339;53.234;6.578;2022-10-31T03:06:41;31.58;;;19.77;;
52412;SDS011;38339;53.234;6.578;2022-10-31T03:09:11;30.50;;;19.52;;
52412;SDS011;38339;53.234;6.578;2022-10-31T03:11:56;36.13;;;20.05;;
52412;SDS011;38339;53.234;6.578;2022-10-31T03:14:31;30.67;;;19.45;;
52412;SDS011;38339;53.234;6.578;2022-10-31T03:17:01;33.38;;;19.48;;
52412;SDS011;38339;53.234;6.578;2022-10-31T03:19:32;31.05;;;20.40;;
52412;SDS011;38339;53.234;6.578;2022-10-31T03:22:10;31.55;;;20.67;;
52412;SDS011;38339;53.234;6.578;2022-10-31T03:27:07;29.73;;;19.70;;
52412;SDS011;38339;53.234;6.578;2022-10-31T03:29:36;28.85;;;19.65;;
52412;SDS011;38339;53.234;6.578;2022-10-31T03:32:09;31.90;;;19.45;;
52412;SDS011;38339;53.234;6.578;2022-10-31T03:34:40;31.77;;;19.73;;
52412;SDS011;38339;53.234;6.578;2022-10-31T03:37:09;29.58;;;19.42;;
52412;SDS011;38339;53.234;6.578;2022-10-31T03:39:36;36.10;;;20.92;;
52412;SDS011;38339;53.234;6.578;2022-10-31T03:42:11;27.77;;;18.45;;
52412;SDS011;38339;53.234;6.578;2022-10-31T03:44:41;29.30;;;18.13;;
52412;SDS011;38339;53.234;6.578;2022-10-31T03:47:11;29.73;;;18.33;;
52412;SDS011;38339;53.234;6.578;2022-10-31T03:49:37;28.17;;;17.83;;
52412;SDS011;38339;53.234;6.578;2022-10-31T03:54:43;25.98;;;18.20;;
52412;SDS011;38339;53.234;6.578;2022-10-31T03:57:32;27.35;;;17.67;;
52412;SDS011;38339;53.234;6.578;2022-10-31T04:00:13;32.08;;;18.90;;
52412;SDS011;38339;53.234;6.578;2022-10-31T04:02:42;36.90;;;17.67;;
52412;SDS011;38339;53.234;6.578;2022-10-31T04:05:23;26.23;;;17.25;;
52412;SDS011;38339;53.234;6.578;2022-10-31T04:07:50;26.92;;;16.90;;
52412;SDS011;38339;53.234;6.578;2022-10-31T04:10:19;27.48;;;17.42;;
52412;SDS011;38339;53.234;6.578;2022-10-31T04:12:48;30.52;;;17.40;;
52412;SDS011;38339;53.234;6.578;2022-10-31T04:15:21;27.30;;;18.05;;
52412;SDS011;38339;53.234;6.578;2022-10-31T04:17:49;25.02;;;16.90;;
52412;SDS011;38339;53.234;6.578;2022-10-31T04:20:17;27.70;;;17.08;;
52412;SDS011;38339;53.234;6.578;2022-10-31T04:22:43;24.55;;;16.40;;
52412;SDS011;38339;53.234;6.578;2022-10-31T04:25:09;26.67;;;17.60;;
52412;SDS011;38339;53.234;6.578;2022-10-31T04:27:35;30.25;;;18.30;;
52412;SDS011;38339;53.234;6.578;2022-10-31T04:30:01;26.23;;;17.52;;
52412;SDS011;38339;53.234;6.578;2022-10-31T04:32:26;26.73;;;16.83;;
52412;SDS011;38339;53.234;6.578;2022-10-31T04:34:52;25.52;;;17.20;;
52412;SDS011;38339;53.234;6.578;2022-10-31T04:37:18;32.25;;;18.85;;
52412;SDS011;38339;53.234;6.578;2022-10-31T04:39:43;27.90;;;17.92;;
52412;SDS011;38339;53.234;6.578;2022-10-31T04:42:09;28.20;;;16.77;;
52412;SDS011;38339;53.234;6.578;2022-10-31T04:44:34;28.70;;;16.75;;
52412;SDS011;38339;53.234;6.578;2022-10-31T04:47:00;26.70;;;18.15;;
52412;SDS011;38339;53.234;6.578;2022-10-31T04:49:26;30.13;;;19.08;;
52412;SDS011;38339;53.234;6.578;2022-10-31T04:51:51;22.85;;;16.67;;
52412;SDS011;38339;53.234;6.578;2022-10-31T04:54:17;28.05;;;18.23;;
52412;SDS011;38339;53.234;6.578;2022-10-31T04:56:43;27.10;;;17.00;;
52412;SDS011;38339;53.234;6.578;2022-10-31T04:59:08;26.92;;;17.42;;
52412;SDS011;38339;53.234;6.578;2022-10-31T05:01:34;31.60;;;18.80;;
52412;SDS011;38339;53.234;6.578;2022-10-31T05:04:00;29.30;;;16.95;;
52412;SDS011;38339;53.234;6.578;2022-10-31T05:06:25;25.67;;;17.23;;
52412;SDS011;38339;53.234;6.578;2022-10-31T05:08:51;27.70;;;17.33;;
52412;SDS011;38339;53.234;6.578;2022-10-31T05:11:17;23.33;;;16.10;;
52412;SDS011;38339;53.234;6.578;2022-10-31T05:13:42;31.77;;;18.60;;
52412;SDS011;38339;53.234;6.578;2022-10-31T05:16:08;25.38;;;17.70;;
52412;SDS011;38339;53.234;6.578;2022-10-31T05:18:34;27.55;;;18.35;;
52412;SDS011;38339;53.234;6.578;2022-10-31T05:20:59;25.98;;;18.38;;
52412;SDS011;38339;53.234;6.578;2022-10-31T05:23:25;25.73;;;18.80;;
52412;SDS011;38339;53.234;6.578;2022-10-31T05:25:51;28.42;;;18.73;;
52412;SDS011;38339;53.234;6.578;2022-10-31T05:28:16;31.50;;;19.13;;
52412;SDS011;38339;53.234;6.578;2022-10-31T05:30:42;29.85;;;18.33;;
52412;SDS011;38339;53.234;6.578;2022-10-31T05:33:08;30.20;;;18.75;;
52412;SDS011;38339;53.234;6.578;2022-10-31T05:35:33;27.27;;;18.17;;
52412;SDS011;38339;53.234;6.578;2022-10-31T05:37:59;28.17;;;17.77;;
52412;SDS011;38339;53.234;6.578;2022-10-31T05:40:26;25.77;;;18.85;;
52412;SDS011;38339;53.234;6.578;2022-10-31T05:42:53;30.50;;;19.23;;
52412;SDS011;38339;53.234;6.578;2022-10-31T05:45:21;26.20;;;19.38;;
52412;SDS011;38339;53.234;6.578;2022-10-31T05:47:57;28.60;;;18.50;;
52412;SDS011;38339;53.234;6.578;2022-10-31T05:50:25;28.58;;;18.20;;
52412;SDS011;38339;53.234;6.578;2022-10-31T05:53:02;24.95;;;18.00;;
52412;SDS011;38339;53.234;6.578;2022-10-31T05:55:29;27.23;;;18.85;;
52412;SDS011;38339;53.234;6.578;2022-10-31T05:57:56;26.52;;;19.05;;
52412;SDS011;38339;53.234;6.578;2022-10-31T06:00:23;26.90;;;17.92;;
52412;SDS011;38339;53.234;6.578;2022-10-31T06:02:57;27.92;;;18.33;;
52412;SDS011;38339;53.234;6.578;2022-10-31T06:05:27;31.02;;;20.85;;
52412;SDS011;38339;53.234;6.578;2022-10-31T06:07:54;30.48;;;18.35;;
52412;SDS011;38339;53.234;6.578;2022-10-31T06:10:20;30.48;;;18.27;;
52412;SDS011;38339;53.234;6.578;2022-10-31T06:12:48;27.70;;;18.42;;
52412;SDS011;38339;53.234;6.578;2022-10-31T06:15:14;25.00;;;17.85;;
52412;SDS011;38339;53.234;6.578;2022-10-31T06:17:40;25.48;;;18.00;;
52412;SDS011;38339;53.234;6.578;2022-10-31T06:20:06;26.23;;;17.63;;
52412;SDS011;38339;53.234;6.578;2022-10-31T06:22:32;27.63;;;18.35;;
52412;SDS011;38339;53.234;6.578;2022-10-31T06:24:58;28.02;;;18.45;;
52412;SDS011;38339;53.234;6.578;2022-10-31T06:27:24;26.48;;;18.73;;
52412;SDS011;38339;53.234;6.578;2022-10-31T06:29:50;25.90;;;18.48;;
52412;SDS011;38339;53.234;6.578;2022-10-31T06:32:16;26.45;;;18.52;;
52412;SDS011;38339;53.234;6.578;2022-10-31T06:34:42;25.77;;;18.48;;
52412;SDS011;38339;53.234;6.578;2022-10-31T06:37:08;24.77;;;17.92;;
52412;SDS011;38339;53.234;6.578;2022-10-31T06:39:35;25.75;;;18.60;;
52412;SDS011;38339;53.234;6.578;2022-10-31T06:42:01;27.42;;;17.60;;
52412;SDS011;38339;53.234;6.578;2022-10-31T06:44:27;26.33;;;18.23;;
52412;SDS011;38339;53.234;6.578;2022-10-31T06:46:53;23.70;;;16.65;;
52412;SDS011;38339;53.234;6.578;2022-10-31T06:49:19;23.33;;;17.35;;
52412;SDS011;38339;53.234;6.578;2022-10-31T06:51:47;26.35;;;17.17;;
52412;SDS011;38339;53.234;6.578;2022-10-31T06:54:13;26.70;;;16.95;;
52412;SDS011;38339;53.234;6.578;2022-10-31T06:56:39;25.85;;;17.65;;
52412;SDS011;38339;53.234;6.578;2022-10-31T06:59:05;25.92;;;16.58;;
52412;SDS011;38339;53.234;6.578;2022-10-31T07:01:30;27.98;;;18.42;;
52412;SDS011;38339;53.234;6.578;2022-10-31T07:03:56;28.35;;;18.02;;
52412;SDS011;38339;53.234;6.578;2022-10-31T07:06:22;26.00;;;17.25;;
52412;SDS011;38339;53.234;6.578;2022-10-31T07:08:47;23.52;;;17.05;;
52412;SDS011;38339;53.234;6.578;2022-10-31T07:11:13;31.23;;;18.00;;
52412;SDS011;38339;53.234;6.578;2022-10-31T07:13:39;26.38;;;17.80;;
52412;SDS011;38339;53.234;6.578;2022-10-31T07:16:05;29.45;;;18.10;;
52412;SDS011;38339;53.234;6.578;2022-10-31T07:18:37;29.30;;;17.65;;
52412;SDS011;38339;53.234;6.578;2022-10-31T07:21:02;30.60;;;18.83;;
52412;SDS011;38339;53.234;6.578;2022-10-31T07:23:29;27.77;;;17.85;;
52412;SDS011;38339;53.234;6.578;2022-10-31T07:25:58;23.95;;;17.17;;
52412;SDS011;38339;53.234;6.578;2022-10-31T07:28:24;27.85;;;17.80;;
52412;SDS011;38339;53.234;6.578;2022-10-31T07:30:51;25.60;;;18.02;;
52412;SDS011;38339;53.234;6.578;2022-10-31T07:33:18;24.10;;;17.48;;
52412;SDS011;38339;53.234;6.578;2022-10-31T07:35:44;30.73;;;18.83;;
52412;SDS011;38339;53.234;6.578;2022-10-31T07:38:10;26.20;;;17.52;;
52412;SDS011;38339;53.234;6.578;2022-10-31T07:40:37;28.08;;;18.20;;
52412;SDS011;38339;53.234;6.578;2022-10-31T07:43:03;32.10;;;19.23;;
52412;SDS011;38339;53.234;6.578;2022-10-31T07:45:29;30.25;;;19.90;;
52412;SDS011;38339;53.234;6.578;2022-10-31T07:47:55;32.90;;;20.35;;
52412;SDS011;38339;53.234;6.578;2022-10-31T07:50:28;33.75;;;19.92;;
52412;SDS011;38339;53.234;6.578;2022-10-31T07:53:07;31.20;;;21.55;;
52412;SDS011;38339;53.234;6.578;2022-10-31T07:55:35;27.55;;;19.58;;
52412;SDS011;38339;53.234;6.578;2022-10-31T07:58:02;30.02;;;20.65;;
52412;SDS011;38339;53.234;6.578;2022-10-31T08:00:30;28.08;;;18.90;;
52412;SDS011;38339;53.234;6.578;2022-10-31T08:03:04;29.75;;;20.33;;
52412;SDS011;38339;53.234;6.578;2022-10-31T08:05:31;25.88;;;19.08;;
52412;SDS011;38339;53.234;6.578;2022-10-31T08:07:57;29.38;;;20.38;;
52412;SDS011;38339;53.234;6.578;2022-10-31T08:10:23;28.35;;;19.15;;
52412;SDS011;38339;53.234;6.578;2022-10-31T08:13:00;30.98;;;19.58;;
52412;SDS011;38339;53.234;6.578;2022-10-31T08:15:27;28.65;;;19.85;;
52412;SDS011;38339;53.234;6.578;2022-10-31T08:17:53;28.95;;;19.67;;
52412;SDS011;38339;53.234;6.578;2022-10-31T08:20:19;30.95;;;19.40;;
52412;SDS011;38339;53.234;6.578;2022-10-31T08:22:59;26.75;;;19.25;;
52412;SDS011;38339;53.234;6.578;2022-10-31T08:25:27;27.73;;;18.48;;
52412;SDS011;38339;53.234;6.578;2022-10-31T08:27:54;27.88;;;19.17;;
52412;SDS011;38339;53.234;6.578;2022-10-31T08:30:22;29.05;;;17.63;;
52412;SDS011;38339;53.234;6.578;2022-10-31T08:32:57;25.15;;;16.95;;
52412;SDS011;38339;53.234;6.578;2022-10-31T08:35:39;27.00;;;17.95;;
52412;SDS011;38339;53.234;6.578;2022-10-31T08:38:05;23.92;;;17.38;;
52412;SDS011;38339;53.234;6.578;2022-10-31T08:40:33;32.53;;;19.95;;
52412;SDS011;38339;53.234;6.578;2022-10-31T08:43:11;26.52;;;16.70;;
52412;SDS011;38339;53.234;6.578;2022-10-31T08:45:38;22.58;;;18.13;;
52412;SDS011;38339;53.234;6.578;2022-10-31T08:48:04;24.60;;;18.00;;
52412;SDS011;38339;53.234;6.578;2022-10-31T08:50:33;23.35;;;17.40;;
52412;SDS011;38339;53.234;6.578;2022-10-31T08:53:01;24.60;;;17.02;;
52412;SDS011;38339;53.234;6.578;2022-10-31T08:55:27;25.23;;;17.25;;
52412;SDS011;38339;53.234;6.578;2022-10-31T08:57:56;25.08;;;17.23;;
52412;SDS011;38339;53.234;6.578;2022-10-31T09:00:22;22.98;;;17.23;;
52412;SDS011;38339;53.234;6.578;2022-10-31T09:02:54;22.63;;;16.65;;
52412;SDS011;38339;53.234;6.578;2022-10-31T09:05:23;22.10;;;16.65;;
52412;SDS011;38339;53.234;6.578;2022-10-31T09:07:49;21.65;;;15.98;;
52412;SDS011;38339;53.234;6.578;2022-10-31T09:10:14;21.48;;;15.27;;
52412;SDS011;38339;53.234;6.578;2022-10-31T09:12:40;23.02;;;16.92;;
52412;SDS011;38339;53.234;6.578;2022-10-31T09:15:06;24.30;;;16.23;;
52412;SDS011;38339;53.234;6.578;2022-10-31T09:17:32;25.35;;;16.10;;
52412;SDS011;38339;53.234;6.578;2022-10-31T09:19:58;23.90;;;17.17;;
52412;SDS011;38339;53.234;6.578;2022-10-31T09:22:24;22.33;;;16.95;;
52412;SDS011;38339;53.234;6.578;2022-10-31T09:24:49;23.70;;;14.93;;
52412;SDS011;38339;53.234;6.578;2022-10-31T09:27:15;22.05;;;16.30;;
52412;SDS011;38339;53.234;6.578;2022-10-31T09:29:41;21.55;;;15.68;;
52412;SDS011;38339;53.234;6.578;2022-10-31T09:32:06;21.63;;;15.95;;
52412;SDS011;38339;53.234;6.578;2022-10-31T09:34:32;27.73;;;18.70;;
52412;SDS011;38339;53.234;6.578;2022-10-31T09:36:58;25.27;;;17.35;;
52412;SDS011;38339;53.234;6.578;2022-10-31T09:39:23;25.77;;;16.88;;
52412;SDS011;38339;53.234;6.578;2022-10-31T09:44:28;24.15;;;15.25;;
52412;SDS011;38339;53.234;6.578;2022-10-31T09:52:21;21.38;;;15.50;;
52412;SDS011;38339;53.234;6.578;2022-10-31T09:54:56;25.05;;;15.77;;
52412;SDS011;38339;53.234;6.578;2022-10-31T09:57:33;20.75;;;15.30;;
52412;SDS011;38339;53.234;6.578;2022-10-31T10:00:00;19.73;;;15.15;;
52412;SDS011;38339;53.234;6.578;2022-10-31T10:02:51;20.92;;;15.10;;
52412;SDS011;38339;53.234;6.578;2022-10-31T10:05:22;19.27;;;14.68;;
52412;SDS011;38339;53.234;6.578;2022-10-31T10:07:57;19.45;;;14.73;;
52412;SDS011;38339;53.234;6.578;2022-10-31T10:17:17;23.48;;;15.10;;
52412;SDS011;38339;53.234;6.578;2022-10-31T10:19:39;16.48;;;13.40;;
52412;SDS011;38339;53.234;6.578;2022-10-31T10:32:56;17.60;;;13.35;;
52412;SDS011;38339;53.234;6.578;2022-10-31T10:35:27;16.52;;;11.23;;
52412;SDS011;38339;53.234;6.578;2022-10-31T10:40:45;17.83;;;10.88;;
52412;SDS011;38339;53.234;6.578;2022-10-31T10:54:01;15.20;;;10.60;;
52412;SDS011;38339;53.234;6.578;2022-10-31T10:56:35;15.55;;;10.15;;
52412;SDS011;38339;53.234;6.578;2022-10-31T10:59:08;13.93;;;9.88;;
52412;SDS011;38339;53.234;6.578;2022-10-31T11:01:36;16.48;;;11.02;;
52412;SDS011;38339;53.234;6.578;2022-10-31T11:04:03;17.00;;;10.20;;
52412;SDS011;38339;53.234;6.578;2022-10-31T11:06:36;15.52;;;10.75;;
52412;SDS011;38339;53.234;6.578;2022-10-31T11:09:08;15.52;;;10.77;;
52412;SDS011;38339;53.234;6.578;2022-10-31T11:11:35;16.67;;;11.02;;
52412;SDS011;38339;53.234;6.578;2022-10-31T11:14:04;16.77;;;12.13;;
52412;SDS011;38339;53.234;6.578;2022-10-31T11:16:38;14.38;;;10.02;;
52412;SDS011;38339;53.234;6.578;2022-10-31T11:21:41;19.15;;;11.15;;
52412;SDS011;38339;53.234;6.578;2022-10-31T11:26:35;15.75;;;10.38;;
52412;SDS011;38339;53.234;6.578;2022-10-31T11:29:03;13.52;;;9.73;;
52412;SDS011;38339;53.234;6.578;2022-10-31T11:31:30;14.65;;;9.45;;
52412;SDS011;38339;53.234;6.578;2022-10-31T11:34:00;14.60;;;10.23;;
52412;SDS011;38339;53.234;6.578;2022-10-31T11:36:32;57.85;;;37.20;;
52412;SDS011;38339;53.234;6.578;2022-10-31T11:39:03;22.10;;;12.27;;
52412;SDS011;38339;53.234;6.578;2022-10-31T11:41:35;15.52;;;9.70;;
52412;SDS011;38339;53.234;6.578;2022-10-31T11:44:10;13.93;;;9.57;;
52412;SDS011;38339;53.234;6.578;2022-10-31T11:46:40;17.38;;;8.57;;
52412;SDS011;38339;53.234;6.578;2022-10-31T11:49:25;12.90;;;8.68;;
52412;SDS011;38339;53.234;6.578;2022-10-31T11:51:56;14.05;;;7.80;;
52412;SDS011;38339;53.234;6.578;2022-10-31T11:54:25;12.85;;;7.32;;
52412;SDS011;38339;53.234;6.578;2022-10-31T11:59:55;16.25;;;8.63;;
52412;SDS011;38339;53.234;6.578;2022-10-31T12:02:22;15.63;;;8.18;;
52412;SDS011;38339;53.234;6.578;2022-10-31T12:04:51;12.48;;;7.63;;
52412;SDS011;38339;53.234;6.578;2022-10-31T12:07:29;15.80;;;8.38;;
52412;SDS011;38339;53.234;6.578;2022-10-31T12:09:55;12.95;;;8.55;;
52412;SDS011;38339;53.234;6.578;2022-10-31T12:18:05;18.67;;;10.52;;
52412;SDS011;38339;53.234;6.578;2022-10-31T12:23:41;16.73;;;8.88;;
52412;SDS011;38339;53.234;6.578;2022-10-31T12:26:23;16.33;;;8.68;;
52412;SDS011;38339;53.234;6.578;2022-10-31T12:31:43;12.77;;;7.30;;
52412;SDS011;38339;53.234;6.578;2022-10-31T12:53:35;12.77;;;6.78;;
52412;SDS011;38339;53.234;6.578;2022-10-31T12:58:36;13.00;;;6.45;;
52412;SDS011;38339;53.234;6.578;2022-10-31T13:03:38;12.90;;;5.82;;
52412;SDS011;38339;53.234;6.578;2022-10-31T13:06:22;12.25;;;6.32;;
52412;SDS011;38339;53.234;6.578;2022-10-31T13:08:55;12.65;;;6.30;;
52412;SDS011;38339;53.234;6.578;2022-10-31T13:11:26;12.00;;;6.35;;
52412;SDS011;38339;53.234;6.578;2022-10-31T13:14:07;12.85;;;6.45;;
52412;SDS011;38339;53.234;6.578;2022-10-31T13:16:40;15.20;;;6.93;;
52412;SDS011;38339;53.234;6.578;2022-10-31T13:21:39;20.02;;;7.50;;
52412;SDS011;38339;53.234;6.578;2022-10-31T13:24:41;18.25;;;7.75;;
52412;SDS011;38339;53.234;6.578;2022-10-31T13:27:28;14.55;;;7.90;;
52412;SDS011;38339;53.234;6.578;2022-10-31T13:30:17;20.05;;;8.43;;
52412;SDS011;38339;53.234;6.578;2022-10-31T13:35:16;13.85;;;7.30;;
52412;SDS011;38339;53.234;6.578;2022-10-31T13:38:09;15.00;;;7.50;;
52412;SDS011;38339;53.234;6.578;2022-10-31T13:49:03;11.38;;;4.70;;
52412;SDS011;38339;53.234;6.578;2022-10-31T13:51:44;27.13;;;14.40;;
52412;SDS011;38339;53.234;6.578;2022-10-31T13:54:23;13.40;;;6.32;;
52412;SDS011;38339;53.234;6.578;2022-10-31T13:57:00;12.10;;;5.50;;
52412;SDS011;38339;53.234;6.578;2022-10-31T13:59:27;8.50;;;4.60;;
52412;SDS011;38339;53.234;6.578;2022-10-31T14:01:58;13.65;;;5.38;;
52412;SDS011;38339;53.234;6.578;2022-10-31T14:04:35;12.88;;;5.70;;
52412;SDS011;38339;53.234;6.578;2022-10-31T14:07:07;18.85;;;5.30;;
52412;SDS011;38339;53.234;6.578;2022-10-31T14:12:31;16.40;;;6.93;;
52412;SDS011;38339;53.234;6.578;2022-10-31T14:15:20;14.77;;;8.27;;
52412;SDS011;38339;53.234;6.578;2022-10-31T14:20:47;16.55;;;6.75;;
52412;SDS011;38339;53.234;6.578;2022-10-31T14:23:31;13.60;;;6.35;;
52412;SDS011;38339;53.234;6.578;2022-10-31T14:26:51;16.00;;;7.13;;
52412;SDS011;38339;53.234;6.578;2022-10-31T14:28:52;14.95;;;6.18;;
52412;SDS011;38339;53.234;6.578;2022-10-31T14:31:36;18.92;;;5.72;;
52412;SDS011;38339;53.234;6.578;2022-10-31T14:37:00;11.80;;;5.63;;
52412;SDS011;38339;53.234;6.578;2022-10-31T14:42:27;14.47;;;7.00;;
52412;SDS011;38339;53.234;6.578;2022-10-31T14:48:03;17.25;;;6.55;;
52412;SDS011;38339;53.234;6.578;2022-10-31T14:53:22;16.05;;;6.05;;
52412;SDS011;38339;53.234;6.578;2022-10-31T14:55:52;15.43;;;6.45;;
52412;SDS011;38339;53.234;6.578;2022-10-31T14:58:20;27.30;;;16.42;;
52412;SDS011;38339;53.234;6.578;2022-10-31T15:00:55;17.43;;;7.23;;
52412;SDS011;38339;53.234;6.578;2022-10-31T15:03:27;10.65;;;5.32;;
52412;SDS011;38339;53.234;6.578;2022-10-31T15:06:09;12.55;;;5.88;;
52412;SDS011;38339;53.234;6.578;2022-10-31T15:08:38;20.15;;;6.30;;
52412;SDS011;38339;53.234;6.578;2022-10-31T15:13:41;13.60;;;6.20;;
52412;SDS011;38339;53.234;6.578;2022-10-31T15:16:08;22.10;;;7.50;;
52412;SDS011;38339;53.234;6.578;2022-10-31T15:18:36;17.30;;;6.35;;
52412;SDS011;38339;53.234;6.578;2022-10-31T15:21:11;17.33;;;6.43;;
52412;SDS011;38339;53.234;6.578;2022-10-31T15:23:41;11.23;;;6.20;;
52412;SDS011;38339;53.234;6.578;2022-10-31T15:26:13;13.35;;;6.28;;
52412;SDS011;38339;53.234;6.578;2022-10-31T15:28:43;15.45;;;7.00;;
52412;SDS011;38339;53.234;6.578;2022-10-31T15:31:13;14.05;;;7.07;;
52412;SDS011;38339;53.234;6.578;2022-10-31T15:33:41;17.77;;;7.50;;
52412;SDS011;38339;53.234;6.578;2022-10-31T15:36:20;42.60;;;9.00;;
52412;SDS011;38339;53.234;6.578;2022-10-31T15:38:48;14.10;;;7.10;;
52412;SDS011;38339;53.234;6.578;2022-10-31T15:41:26;28.88;;;8.32;;
52412;SDS011;38339;53.234;6.578;2022-10-31T15:44:04;43.28;;;23.02;;
52412;SDS011;38339;53.234;6.578;2022-10-31T15:47:04;22.33;;;11.57;;
52412;SDS011;38339;53.234;6.578;2022-10-31T15:49:35;25.58;;;15.02;;
52412;SDS011;38339;53.234;6.578;2022-10-31T15:55:01;16.58;;;9.75;;
52412;SDS011;38339;53.234;6.578;2022-10-31T15:57:30;16.65;;;9.85;;
52412;SDS011;38339;53.234;6.578;2022-10-31T15:59:56;16.75;;;9.55;;
52412;SDS011;38339;53.234;6.578;2022-10-31T16:02:24;18.55;;;10.70;;
52412;SDS011;38339;53.234;6.578;2022-10-31T16:04:55;17.77;;;9.10;;
52412;SDS011;38339;53.234;6.578;2022-10-31T16:07:26;17.50;;;10.38;;
52412;SDS011;38339;53.234;6.578;2022-10-31T16:09:57;18.45;;;10.50;;
52412;SDS011;38339;53.234;6.578;2022-10-31T16:12:29;20.48;;;9.63;;
52412;SDS011;38339;53.234;6.578;2022-10-31T16:15:13;17.60;;;9.90;;
52412;SDS011;38339;53.234;6.578;2022-10-31T16:17:41;17.38;;;10.32;;
52412;SDS011;38339;53.234;6.578;2022-10-31T16:20:18;17.45;;;10.35;;
52412;SDS011;38339;53.234;6.578;2022-10-31T16:22:50;19.05;;;9.90;;
52412;SDS011;38339;53.234;6.578;2022-10-31T16:25:24;20.83;;;10.48;;
52412;SDS011;38339;53.234;6.578;2022-10-31T16:27:51;19.45;;;10.63;;
52412;SDS011;38339;53.234;6.578;2022-10-31T16:30:38;18.02;;;10.40;;
52412;SDS011;38339;53.234;6.578;2022-10-31T16:33:20;17.60;;;10.10;;
52412;SDS011;38339;53.234;6.578;2022-10-31T16:35:48;14.98;;;10.07;;
52412;SDS011;38339;53.234;6.578;2022-10-31T16:38:14;20.10;;;9.77;;
52412;SDS011;38339;53.234;6.578;2022-10-31T16:40:40;19.73;;;9.50;;
52412;SDS011;38339;53.234;6.578;2022-10-31T16:43:10;16.98;;;9.48;;
52412;SDS011;38339;53.234;6.578;2022-10-31T16:45:42;15.18;;;8.23;;
52412;SDS011;38339;53.234;6.578;2022-10-31T16:48:20;15.95;;;8.65;;
52412;SDS011;38339;53.234;6.578;2022-10-31T16:50:48;15.07;;;8.25;;
52412;SDS011;38339;53.234;6.578;2022-10-31T16:53:15;12.15;;;8.52;;
52412;SDS011;38339;53.234;6.578;2022-10-31T16:55:42;14.27;;;8.45;;
52412;SDS011;38339;53.234;6.578;2022-10-31T16:58:30;12.55;;;8.02;;
52412;SDS011;38339;53.234;6.578;2022-10-31T17:00:58;15.48;;;8.73;;
52412;SDS011;38339;53.234;6.578;2022-10-31T17:03:25;13.85;;;8.30;;
52412;SDS011;38339;53.234;6.578;2022-10-31T17:05:51;14.38;;;8.35;;
52412;SDS011;38339;53.234;6.578;2022-10-31T17:08:17;13.90;;;8.68;;
52412;SDS011;38339;53.234;6.578;2022-10-31T17:10:43;13.23;;;8.38;;
52412;SDS011;38339;53.234;6.578;2022-10-31T17:13:12;12.30;;;8.30;;
52412;SDS011;38339;53.234;6.578;2022-10-31T17:15:43;12.13;;;8.93;;